CheckWX is a tool to help pilots better visualize weather data.  It is not intended as a substitute for an official pre-flight weather briefing.

20:13:26 UTC

F46 METAR
Ralph M Hall / Rockwall Municipal Airport
Rockwall, Texas, USA
Current

18 mins ago

KF46 231955Z AUTO 18013KT 10SM BKN022 OVC029 23/18 A3000 RMK AO2 LTG DSNT NW T02340181
Observed
Apr-23 @ 19:55 UTC
Wind
  • 180° at 13 KTS
Visibility
10 SM
Flight Rules
MVFR
Cloud Levels
  • Broken at 2,200' AGL
  • Overcast at 2,900' AGL
Temperature
23°C / 73°F
Dewpoint
18°C / 64°F
Humidity
74%
Altimeter
30" Hg
Pressure
1015.92 hPa
Previous

38 mins ago

KF46 231935Z AUTO 16009G16KT 10SM BKN022 BKN031 OVC085 24/19 A3000 RMK AO2 T02410186
Observed
Apr-23 @ 19:35 UTC
Wind
  • 160° at 9 KTS
  • Gusting to 16 KTS
Visibility
10 SM
Flight Rules
MVFR
Cloud Levels
  • Broken at 2,200' AGL
  • Broken at 3,100' AGL
  • Overcast at 8,500' AGL
Temperature
24°C / 75°F
Dewpoint
19°C / 66°F
Humidity
74%
Altimeter
30" Hg
Pressure
1015.92 hPa
Previous

58 mins ago

KF46 231915Z AUTO 19013G19KT 10SM BKN022 BKN028 BKN041 24/18 A3001 RMK AO2 T02410180
Observed
Apr-23 @ 19:15 UTC
Wind
  • 190° at 13 KTS
  • Gusting to 19 KTS
Visibility
10 SM
Flight Rules
MVFR
Cloud Levels
  • Broken at 2,200' AGL
  • Broken at 2,800' AGL
  • Broken at 4,100' AGL
Temperature
24°C / 75°F
Dewpoint
18°C / 64°F
Humidity
69%
Altimeter
30.01" Hg
Pressure
1016.22 hPa